x

Devils Island, Wi (disw3) Weather Station

10:00am - Sun 25th Jun 2017 All times are CDT. -5 hours from GMT.

  • Wind
    6mph, 7mph gusts
  • Air Temp 52°f
  • Sea Pressure 1017mb
  • Devils Island, Wi
  • Devils Island, Wi

More Historic Weather Station data

Upgrade to MSW Pro to gain access to the past 30 days of data for over 8000 Wavebouys and Weather Stations around the globe.

Join Pro

Comparision Forecast

View Surf forecast
   
Sun 06/25 10:00am 6 7 mph 1017mb 52f
9:00am 9 10 mph 1016.8mb 52f
8:00am 8 9 mph 1016.4mb 52f
7:00am 10 11 mph 1016.1mb 52f
6:00am 8 9 mph 1015.7mb 52f
5:00am 10 11 mph 1015.1mb 53f
4:00am 8 10 mph 1015mb 54f
3:00am 11 13 mph 1015.1mb 53f
2:00am 11 13 mph 1014.9mb 54f
1:00am 11 13 mph 1015mb 52f
12:00am 11 13 mph 1015mb 52f
Sat 06/24 11:00pm 16 18 mph 1014.6mb 55f
10:00pm 15 16 mph 1014.4mb 56f
9:00pm 16 17 mph 1014.2mb 54f
8:00pm 8 9 mph 1013.8mb 53f
7:00pm 7 9 mph 1013.6mb 54f
6:00pm 9 11 mph 1013.5mb 54f
5:00pm 13 14 mph 1013.6mb 53f
4:00pm 18 21 mph 1013.2mb 55f
3:00pm 21 25 mph 1013mb 53f
2:00pm 17 20 mph 1012.8mb 54f
1:00pm 20 23 mph 1012.7mb 53f
12:00pm 17 20 mph 1012.6mb 53f
11:00am 16 21 mph 1012mb 53f
10:00am 17 20 mph 1011.8mb 53f
9:00am 16 20 mph 1011.6mb 53f
8:00am 16 17 mph 1011.3mb 53f
7:00am 15 20 mph 1011mb 53f
6:00am 16 18 mph 1010.7mb 53f
5:00am 16 20 mph 1010.4mb 53f
4:00am 16 20 mph 1010.2mb 53f
3:00am 16 18 mph 1009.8mb 53f
2:00am 14 16 mph 1009.7mb 53f
1:00am 16 17 mph 1009.5mb 53f
12:00am 11 15 mph 1009.4mb 54f
Fri 06/23 11:00pm 18 20 mph 1008.7mb 56f
10:00pm 21 23 mph 1008.3mb 56f
9:00pm 21 23 mph 1007.3mb 58f
8:00pm 10 11 mph 1007mb 58f
7:00pm 14 16 mph 1006.2mb 58f
6:00pm 10 11 mph 1005.6mb 59f
5:00pm 13 14 mph 1005.6mb 58f
4:00pm 13 17 mph 1005.2mb 58f
3:00pm 17 18 mph 1005mb 58f
2:00pm 17 20 mph 1004.9mb 56f
1:00pm 18 22 mph 1004.8mb 57f
12:00pm 21 23 mph 1004.4mb 56f
11:00am 21 25 mph 1004.3mb 56f
10:00am 24 28 mph 1004mb 56f
9:00am 20 22 mph 1003.4mb 55f
8:00am 17 20 mph 1003.4mb 55f
7:00am 18 21 mph 1003.1mb 55f
6:00am 16 18 mph 1002.9mb 56f
5:00am 15 16 mph 1002.8mb 56f
4:00am 16 17 mph 1002.2mb 59f
3:00am 15 16 mph 1002.7mb 60f
2:00am 14 15 mph 1003.3mb 60f
1:00am 11 13 mph 1004mb 59f
12:00am 11 13 mph 1004.3mb 61f
Thu 06/22 11:00pm 10 11 mph 1004.7mb 60f
10:00pm 25 30 mph 1005.3mb 60f
9:00pm 14 21 mph 1003.8mb 62f
8:00pm 15 16 mph 1003.4mb 71f
7:00pm 14 17 mph 1003.3mb 70f
6:00pm 16 18 mph 1003.5mb 70f
5:00pm 15 18 mph 1003.7mb 67f
4:00pm 13 16 mph 1004mb 64f
3:00pm 13 16 mph 1004mb 65f
2:00pm 9 13 mph 1004.4mb 62f
1:00pm 9 14 mph 1005.2mb 58f
12:00pm 9 13 mph 1005mb 59f
11:00am 10 14 mph 1004.5mb 58f
10:00am 16 17 mph 1004.7mb 58f
9:00am 15 17 mph 1004.9mb 55f
8:00am 14 16 mph 1005.2mb 53f
7:00am 14 15 mph 1005.3mb 50f
6:00am 8 10 mph 1004.2mb 51f
5:00am 8 9 mph 1003.6mb 54f
4:00am 11 14 mph 1003.6mb 52f
3:00am 9 10 mph 1004.7mb 49f
2:00am 11 13 mph 1005.5mb 49f
1:00am 17 20 mph 1006.3mb 49f
12:00am 13 15 mph 1006.7mb 49f
Wed 06/21 11:00pm 9 10 mph 1007.2mb 53f
10:00pm 11 13 mph 1007.2mb 57f
9:00pm 15 17 mph 1008.2mb 57f
8:00pm 14 17 mph 1007.9mb 59f
7:00pm 13 14 mph 1009mb 53f
6:00pm 11 11 mph 1010.3mb 55f
5:00pm 14 14 mph 1009.9mb 57f